Whitehall, WI (54773)

1:50 PM CST on December 05, 2016 (GMT -0600)
KWIOSSEO2 | | Change Station

Elev 997 ft 44.59 °N, 91.27 °W | Updated 1 minute ago

Rain
Rain
35.2 °F
Feels Like 35 °F
N
3.0
Wind Variable Wind from SSE
Gusts 7.0 mph

Today
High -- | Low -- °F
--% Chance of Precip.
Yesterday
High -- | Low -- °F
Precip. -- in
Pressure 29.83 in
Visibility 7.0 miles
Clouds Mostly Cloudy 900 ft
Mostly Cloudy 10000 ft
Windchill 35 °F
Dew Point 33 °F
Humidity 91%
Rainfall 0.11 in
Snow Depth Not available.
7:26 AM 4:26 PM
Waxing Crescent, 34% visible
METAR KBCK 051935Z AUTO 15005KT 7SM BKN009 BKN100 03/02 A2983 RMK AO2 T00300021
Pressure 29.83 in
Visibility 7.0 miles
Clouds Mostly Cloudy 900 ft
Mostly Cloudy 10000 ft
Windchill 35 °F
Dew Point 33 °F
Humidity 91%
Rainfall 0.11 in
Snow Depth Not available.
7:26 AM 4:26 PM
Waxing Crescent, 34% visible
METAR KBCK 051935Z AUTO 15005KT 7SM BKN009 BKN100 03/02 A2983 RMK AO2 T00300021

10-Day Weather Forecast

Almanac

Astronomy

Dec. 05, 2016 Rise Set
Actual Time
Civil Twilight
Nautical Twilight
Astronomical Twilight
Moon
Length of Visible Light
Length of Day
Tomorrow will be .
, % of the Moon is Illuminated

Today's Extremes

State Highs State Lows

Community

WunderPhotos

Upload Photos

1,955,845 photos uploaded!

WunderBlog® & News

Nearby

Air Quality

  Air Quality AQ Index Pollutant
Not available.

Snow Depth

Station Depth Elevation

Earthquake Activity

City Distance Mag. Time & Date
Minimum magnitude displayed is 2.5.

Coastal Water Temperatures

Place Temperature

Stations

Nearby Weather Stations

Station Location Temp. Windchill Dew Point Humidity Wind Precip. Elev Updated Type
                   

Watches & Warnings

There are currently no watches in effect.